Time;durP1;ratioP1;P1;durP2;ratioP2;P2;SDS_P1;SDS_P2;PMS_P1;PMS_P2;Temp;Humidity;BMP_temperature;BMP_pressure;BME280_temperature;BME280_humidity;BME280_pressure;Samples;Min_cycle;Max_cycle;Signal;HPM_P1;HPM_P2
2021/09/19 00:00:32;;;;;;;1.95;1.33;;;;;;;22.27;39.83;101106.28;5024628;28;20056;-73
2021/09/19 00:02:58;;;;;;;3.55;1.38;;;;;;;22.24;39.70;101107.47;5024039;28;20124;-73
2021/09/19 00:05:25;;;;;;;2.03;1.05;;;;;;;22.23;39.93;101100.25;5026477;28;20467;-73
2021/09/19 00:07:51;;;;;;;2.33;1.40;;;;;;;22.21;40.24;101107.84;5027463;28;20045;-72
2021/09/19 00:10:18;;;;;;;1.88;1.20;;;;;;;22.18;39.89;101110.94;5028671;28;20081;-73
2021/09/19 00:12:45;;;;;;;3.28;1.40;;;;;;;22.18;39.78;101108.19;5027463;28;20050;-73
2021/09/19 00:15:16;;;;;;;2.35;1.30;;;;;;;22.18;40.38;101108.19;5028431;28;20367;-73
2021/09/19 00:17:43;;;;;;;1.75;1.20;;;;;;;22.14;39.83;101097.66;5027347;28;20535;-72
2021/09/19 00:20:10;;;;;;;2.13;1.48;;;;;;;22.13;39.98;101102.31;5027915;28;20232;-73
2021/09/19 00:22:37;;;;;;;3.25;1.40;;;;;;;22.11;40.09;101101.59;5028183;28;20045;-72
2021/09/19 00:25:04;;;;;;;1.77;1.25;;;;;;;22.11;40.07;101098.84;5028494;28;20554;-73
2021/09/19 00:27:31;;;;;;;2.00;1.10;;;;;;;22.08;40.18;101098.31;5025901;28;20141;-73
2021/09/19 00:29:59;;;;;;;2.08;1.25;;;;;;;22.07;40.55;101096.59;5027864;28;20056;-73
2021/09/19 00:32:25;;;;;;;2.22;1.30;;;;;;;22.04;40.46;101094.16;5028015;28;20129;-72
2021/09/19 00:34:52;;;;;;;2.65;1.10;;;;;;;22.02;40.25;101094.34;5027619;28;20152;-72
2021/09/19 00:37:18;;;;;;;3.53;1.30;;;;;;;22.01;40.70;101092.59;5027605;28;20081;-72
2021/09/19 00:39:45;;;;;;;1.63;0.98;;;;;;;21.99;40.65;101091.91;5027355;28;20080;-72
2021/09/19 00:42:11;;;;;;;3.20;1.40;;;;;;;21.98;40.19;101085.53;5027552;28;20128;-73
2021/09/19 00:44:38;;;;;;;1.60;1.10;;;;;;;21.96;40.63;101086.69;5027036;28;20152;-72
2021/09/19 00:47:05;;;;;;;3.88;1.50;;;;;;;21.96;40.74;101081.16;5027288;28;20045;-72
2021/09/19 00:49:31;;;;;;;2.00;1.10;;;;;;;21.93;40.85;101090.66;5027216;28;20084;-73
2021/09/19 00:51:58;;;;;;;1.25;0.90;;;;;;;21.93;40.33;101089.78;5025778;28;20056;-72
2021/09/19 00:54:24;;;;;;;1.38;1.00;;;;;;;21.92;40.32;101090.81;5026959;28;20132;-73
2021/09/19 00:56:55;;;;;;;1.70;1.10;;;;;;;21.93;40.19;101090.66;5026968;28;20397;-72
2021/09/19 00:59:22;;;;;;;1.90;1.20;;;;;;;21.91;40.75;101086.31;5026648;28;20140;-73
2021/09/19 01:01:50;;;;;;;1.83;1.02;;;;;;;21.91;40.83;101089.09;5027459;28;20463;-72
2021/09/19 01:04:18;;;;;;;1.70;1.00;;;;;;;21.89;40.85;101089.28;5026925;28;20051;-72
2021/09/19 01:06:45;;;;;;;1.92;1.10;;;;;;;21.87;40.76;101084.94;5027209;28;20054;-73
2021/09/19 01:09:12;;;;;;;1.77;1.20;;;;;;;21.87;40.45;101088.59;5026426;28;20540;-72
2021/09/19 01:11:40;;;;;;;2.70;1.13;;;;;;;21.87;40.70;101090.47;5027376;28;20057;-72
2021/09/19 01:14:07;;;;;;;1.33;0.93;;;;;;;21.85;40.74;101087.00;5026483;28;20133;-72
2021/09/19 01:16:34;;;;;;;1.88;1.02;;;;;;;21.83;40.73;101100.13;5025901;28;20064;-72
2021/09/19 01:19:03;;;;;;;2.35;1.20;;;;;;;21.85;40.88;101089.78;5026730;28;20077;-73
2021/09/19 01:21:30;;;;;;;1.63;1.00;;;;;;;21.81;40.68;101085.63;5027290;28;20144;-72
2021/09/19 01:24:03;;;;;;;1.80;1.20;;;;;;;21.81;40.68;101094.81;5026003;28;20053;-72
2021/09/19 01:26:31;;;;;;;2.63;1.08;;;;;;;21.79;40.65;101087.69;5026808;28;20050;-72
2021/09/19 01:28:59;;;;;;;1.67;1.08;;;;;;;21.77;40.70;101078.72;5039314;23;20128;-75
2021/09/19 01:31:27;;;;;;;1.67;1.00;;;;;;;21.76;40.65;101085.25;5046415;28;20489;-74
2021/09/19 01:33:55;;;;;;;1.55;1.00;;;;;;;21.73;40.91;101085.63;5054738;28;20072;-77
2021/09/19 01:36:22;;;;;;;1.90;1.10;;;;;;;21.71;40.86;101080.25;5028970;28;20127;-77
2021/09/19 01:38:48;;;;;;;1.55;1.10;;;;;;;21.70;40.96;101077.66;5018637;28;20132;-77
2021/09/19 01:41:25;;;;;;;1.77;1.10;;;;;;;21.70;40.98;101072.13;5026946;28;20129;-77
2021/09/19 01:43:54;;;;;;;2.15;1.00;;;;;;;21.70;40.86;101080.41;5026287;28;20140;-77
2021/09/19 01:46:20;;;;;;;2.28;1.00;;;;;;;21.66;41.28;101074.34;5026614;28;20132;-77
2021/09/19 01:48:48;;;;;;;1.83;1.05;;;;;;;21.66;40.88;101079.03;5025513;28;20053;-77
2021/09/19 01:51:14;;;;;;;1.58;1.00;;;;;;;21.64;41.33;101069.03;5009027;28;20049;-77
2021/09/19 01:53:42;;;;;;;2.22;1.00;;;;;;;21.64;41.00;101071.78;5014746;28;20063;-77
2021/09/19 01:56:11;;;;;;;2.75;1.20;;;;;;;21.64;41.00;101059.88;5045822;28;20056;-77
2021/09/19 01:58:46;;;;;;;1.60;0.90;;;;;;;21.67;41.45;101061.41;5041732;28;20139;-76
2021/09/19 02:01:13;;;;;;;1.35;0.95;;;;;;;21.61;40.96;101069.34;5041731;28;20532;-77
2021/09/19 02:03:40;;;;;;;1.80;0.90;;;;;;;21.62;41.39;101056.41;5045414;28;20096;-77
2021/09/19 02:06:09;;;;;;;1.85;1.08;;;;;;;21.62;41.32;101061.91;5028386;28;20095;-76
2021/09/19 02:08:36;;;;;;;1.23;0.88;;;;;;;21.60;41.25;101050.16;5023583;28;20481;-77
2021/09/19 02:11:09;;;;;;;1.17;0.90;;;;;;;21.60;41.03;101045.50;5026453;28;20085;-77
2021/09/19 02:13:36;;;;;;;;;;;;;;;21.32;41.47;101051.47;5028864;28;20566;-77
2021/09/19 02:16:04;;;;;;;1.65;0.85;;;;;;;21.52;41.05;101064.81;5045794;28;20011;-77
2021/09/19 02:18:32;;;;;;;1.38;1.00;;;;;;;21.54;40.99;101060.00;5027409;28;20535;-77
2021/09/19 02:20:59;;;;;;;1.67;1.00;;;;;;;21.53;41.30;101060.16;5028043;28;20053;-77
2021/09/19 02:23:26;;;;;;;1.60;1.08;;;;;;;21.51;41.38;101056.69;5044609;28;20076;-77
2021/09/19 02:25:53;;;;;;;3.13;1.10;;;;;;;21.49;41.13;101056.03;5025670;28;20526;-77
2021/09/19 02:28:19;;;;;;;1.60;1.10;;;;;;;21.47;41.45;101053.44;5014884;28;20127;-77
2021/09/19 02:30:46;;;;;;;1.42;1.00;;;;;;;21.45;41.37;101049.97;5026770;28;20459;-76
2021/09/19 02:33:13;;;;;;;2.30;1.17;;;;;;;21.43;41.32;101054.78;5025242;28;20045;-76
2021/09/19 02:35:40;;;;;;;1.88;1.00;;;;;;;21.40;41.42;101046.84;5011687;28;20140;-77
2021/09/19 02:38:07;;;;;;;1.55;0.90;;;;;;;21.39;41.31;101053.41;5025108;28;20052;-77
2021/09/19 02:40:33;;;;;;;1.50;0.90;;;;;;;21.36;40.95;101048.19;5041674;28;20505;-76
2021/09/19 02:43:01;;;;;;;1.42;1.00;;;;;;;21.35;41.32;101052.00;5044742;28;20049;-77
2021/09/19 02:45:28;;;;;;;1.50;0.95;;;;;;;21.31;41.18;101045.09;5031262;28;20124;-76
2021/09/19 02:47:54;;;;;;;1.40;0.85;;;;;;;21.30;41.54;101042.50;5007053;28;20049;-77
2021/09/19 02:50:23;;;;;;;1.38;0.90;;;;;;;21.29;41.35;101041.63;5038295;28;20139;-77
2021/09/19 02:52:51;;;;;;;1.80;1.20;;;;;;;21.25;41.09;101041.06;5034699;28;20136;-77
2021/09/19 02:55:19;;;;;;;1.75;1.00;;;;;;;21.23;41.22;101040.41;5007927;28;20077;-77
2021/09/19 02:57:46;;;;;;;1.77;1.00;;;;;;;21.20;41.50;101037.09;5023511;28;20051;-77
2021/09/19 03:00:18;;;;;;;1.70;1.10;;;;;;;21.20;41.58;101037.09;5035479;28;20135;-76
2021/09/19 03:02:46;;;;;;;1.80;1.30;;;;;;;21.14;41.61;101037.75;5044162;28;20123;-76
2021/09/19 03:05:13;;;;;;;1.70;1.05;;;;;;;21.11;41.31;101033.41;5028112;28;20837;-76
2021/09/19 03:07:40;;;;;;;1.63;1.10;;;;;;;21.10;41.35;101039.09;5044199;28;20154;-76
2021/09/19 03:10:08;;;;;;;1.65;1.10;;;;;;;21.09;41.30;101040.97;5027837;28;20486;-77
2021/09/19 03:12:34;;;;;;;2.05;1.15;;;;;;;21.05;41.73;101033.22;5044171;28;20580;-77
2021/09/19 03:15:02;;;;;;;1.75;1.20;;;;;;;21.02;41.21;101037.16;5021087;28;20136;-77
2021/09/19 03:17:29;;;;;;;1.60;1.10;;;;;;;21.00;41.64;101033.69;5024135;28;20506;-76
2021/09/19 03:19:55;;;;;;;2.65;1.08;;;;;;;20.98;41.73;101030.25;5030561;28;20132;-76
2021/09/19 03:22:22;;;;;;;2.03;1.10;;;;;;;20.95;41.33;101036.09;5044448;28;20059;-76
2021/09/19 03:24:48;;;;;;;1.85;1.10;;;;;;;20.95;41.28;101029.72;5024092;28;20043;-77
2021/09/19 03:27:15;;;;;;;1.85;1.10;;;;;;;20.92;41.37;101032.81;5025012;28;20053;-76
2021/09/19 03:29:41;;;;;;;1.70;1.10;;;;;;;20.88;41.55;101033.13;5040735;28;20048;-76
2021/09/19 03:32:08;;;;;;;1.70;1.10;;;;;;;20.87;41.60;101033.28;5008063;28;20060;-76
2021/09/19 03:34:35;;;;;;;1.50;1.10;;;;;;;20.84;41.76;101030.84;5024034;28;20056;-76
2021/09/19 03:37:02;;;;;;;2.28;1.17;;;;;;;20.82;41.84;101032.94;5045216;28;20569;-76
2021/09/19 03:39:29;;;;;;;1.23;1.00;;;;;;;20.79;41.77;101038.78;5043945;28;20056;-76
2021/09/19 03:41:55;;;;;;;1.58;1.00;;;;;;;20.77;41.68;101032.53;5030133;28;20085;-76
2021/09/19 03:44:22;;;;;;;1.52;1.05;;;;;;;20.72;41.48;101023.91;5027963;28;20532;-76
2021/09/19 03:46:48;;;;;;;1.85;1.00;;;;;;;20.69;41.98;101035.25;5046031;28;20049;-76
2021/09/19 03:49:15;;;;;;;1.35;1.00;;;;;;;20.66;42.11;101019.91;5030337;28;20135;-75
2021/09/19 03:51:41;;;;;;;1.90;0.90;;;;;;;20.63;41.94;101025.75;5015213;28;20042;-74
2021/09/19 03:54:08;;;;;;;1.73;0.90;;;;;;;20.60;41.79;101026.06;5008277;28;20120;-76
2021/09/19 03:56:34;;;;;;;2.67;1.10;;;;;;;20.57;42.11;101025.53;5018578;28;20136;-76
2021/09/19 03:59:01;;;;;;;1.40;0.95;;;;;;;20.52;42.01;101029.63;5014994;28;20140;-75
2021/09/19 04:01:27;;;;;;;1.42;0.85;;;;;;;20.50;42.19;101028.09;5046111;28;20048;-76
2021/09/19 04:03:54;;;;;;;1.60;1.10;;;;;;;20.47;42.03;101032.03;5030116;28;20051;-76
2021/09/19 04:06:21;;;;;;;1.48;1.00;;;;;;;20.44;42.16;101021.31;5037696;28;20137;-76
2021/09/19 04:08:47;;;;;;;1.35;0.95;;;;;;;20.43;42.30;101027.84;5009870;28;20049;-75
2021/09/19 04:11:14;;;;;;;1.40;1.00;;;;;;;20.41;41.88;101029.06;5028363;28;20494;-76
2021/09/19 04:13:40;;;;;;;0.82;0.80;;;;;;;20.39;41.86;101026.47;5010114;28;20136;-76
2021/09/19 04:16:07;;;;;;;1.23;0.98;;;;;;;20.38;42.02;101029.38;5018077;28;20437;-76
2021/09/19 04:18:34;;;;;;;1.23;0.93;;;;;;;20.37;42.40;101033.16;5029876;28;20498;-76
2021/09/19 04:21:00;;;;;;;1.38;1.00;;;;;;;20.36;42.35;101029.53;5025031;28;20401;-76
2021/09/19 04:23:27;;;;;;;1.92;1.10;;;;;;;20.35;42.16;101032.44;5027544;28;20051;-76
2021/09/19 04:25:53;;;;;;;1.40;1.00;;;;;;;20.33;42.02;101028.97;5028160;28;20049;-76
2021/09/19 04:28:20;;;;;;;1.80;1.13;;;;;;;20.33;42.43;101028.97;5017342;28;20055;-76
2021/09/19 04:30:46;;;;;;;1.48;1.00;;;;;;;20.30;41.98;101035.66;5030378;28;20053;-75
2021/09/19 04:33:13;;;;;;;1.60;1.10;;;;;;;20.29;42.18;101036.69;5029777;28;20049;-75
2021/09/19 04:35:39;;;;;;;1.52;1.00;;;;;;;20.28;42.00;101029.44;5047193;28;20465;-76
2021/09/19 04:38:06;;;;;;;1.58;1.05;;;;;;;20.27;42.00;101033.22;5026913;28;20055;-76
2021/09/19 04:40:33;;;;;;;2.20;1.20;;;;;;;20.25;42.19;101037.19;5010388;28;20053;-75
2021/09/19 04:42:59;;;;;;;2.30;1.10;;;;;;;20.24;41.96;101039.06;5028864;28;20051;-76
2021/09/19 04:45:26;;;;;;;1.77;1.10;;;;;;;20.23;42.17;101041.97;5047967;28;20140;-75
2021/09/19 04:47:53;;;;;;;2.05;1.10;;;;;;;20.21;42.46;101039.38;5046483;28;20045;-75
2021/09/19 04:50:19;;;;;;;1.52;1.15;;;;;;;20.19;42.50;101041.44;5047719;28;20581;-75
2021/09/19 04:52:46;;;;;;;1.98;1.10;;;;;;;20.18;42.63;101044.38;5036516;28;20132;-75
2021/09/19 04:55:12;;;;;;;1.50;1.10;;;;;;;20.16;42.37;101043.66;5009755;28;20045;-75
2021/09/19 04:57:39;;;;;;;1.67;1.20;;;;;;;20.14;42.21;101046.56;5021827;28;20041;-75
2021/09/19 05:00:06;;;;;;;1.90;1.20;;;;;;;20.12;42.55;101055.00;5038874;28;20041;-75
2021/09/19 05:02:33;;;;;;;2.05;1.27;;;;;;;20.10;42.56;101047.88;5046870;28;20465;-76
2021/09/19 05:04:59;;;;;;;1.83;1.13;;;;;;;20.09;42.79;101046.19;5047572;28;20483;-75
2021/09/19 05:07:26;;;;;;;2.05;1.33;;;;;;;20.08;42.66;101049.97;5028513;28;20100;-75
2021/09/19 05:09:52;;;;;;;2.47;1.50;;;;;;;20.07;42.85;101048.22;5047110;28;20045;-75
2021/09/19 05:12:19;;;;;;;2.20;1.30;;;;;;;20.06;42.67;101057.53;5037206;28;20168;-75
2021/09/19 05:14:46;;;;;;;1.77;1.15;;;;;;;20.04;42.58;101049.41;5027458;28;20049;-75
2021/09/19 05:17:13;;;;;;;2.50;1.10;;;;;;;20.03;42.58;101058.69;5017652;28;20581;-75
2021/09/19 05:19:39;;;;;;;2.20;1.20;;;;;;;20.03;43.02;101057.81;5028619;28;20063;-75
2021/09/19 05:22:06;;;;;;;2.22;1.17;;;;;;;20.02;42.92;101053.34;5023335;28;20112;-75
2021/09/19 05:24:33;;;;;;;2.80;1.17;;;;;;;20.00;42.78;101055.41;5008669;28;20128;-75
2021/09/19 05:26:59;;;;;;;1.98;1.13;;;;;;;20.00;43.22;101059.03;5031827;28;20051;-76
2021/09/19 05:29:26;;;;;;;2.10;1.17;;;;;;;19.99;42.98;101049.03;5017812;28;20529;-75
2021/09/19 05:31:52;;;;;;;1.83;1.25;;;;;;;19.98;43.38;101044.53;5012962;28;20076;-75
2021/09/19 05:34:19;;;;;;;2.50;1.17;;;;;;;19.98;42.89;101044.53;5028394;28;20068;-77
2021/09/19 05:36:45;;;;;;;2.72;1.20;;;;;;;19.98;43.18;101050.06;5027196;28;20053;-76
2021/09/19 05:39:12;;;;;;;2.47;1.48;;;;;;;19.97;43.32;101047.44;5025983;28;20049;-76
2021/09/19 05:41:38;;;;;;;1.70;1.10;;;;;;;19.96;43.56;101049.34;5027180;28;20537;-76
2021/09/19 05:44:05;;;;;;;1.90;1.10;;;;;;;19.96;43.01;101049.34;5006574;28;20123;-75
2021/09/19 05:46:31;;;;;;;1.60;1.20;;;;;;;19.97;43.57;101050.19;4989366;28;20089;-75
2021/09/19 05:48:59;;;;;;;1.95;1.33;;;;;;;19.96;43.69;101054.84;5042343;28;20052;-75
2021/09/19 05:51:27;;;;;;;2.55;1.20;;;;;;;19.97;43.19;101059.34;5028876;28;20404;-76
2021/09/19 05:53:53;;;;;;;2.45;1.30;;;;;;;19.95;43.50;101055.00;5026244;28;20075;-76
2021/09/19 05:56:20;;;;;;;3.47;1.67;;;;;;;19.94;43.59;101056.88;5046387;28;20533;-76
2021/09/19 05:58:46;;;;;;;2.53;1.30;;;;;;;19.94;43.26;101065.16;5023818;28;20128;-76
2021/09/19 06:01:13;;;;;;;2.05;1.20;;;;;;;19.94;43.49;101061.53;5013459;28;20053;-76
2021/09/19 06:03:41;;;;;;;2.05;1.30;;;;;;;19.93;43.78;101063.41;5038622;28;20041;-75
2021/09/19 06:06:07;;;;;;;2.10;1.30;;;;;;;19.92;43.40;101067.22;5045620;28;20078;-75
2021/09/19 06:08:34;;;;;;;1.75;1.23;;;;;;;19.92;43.98;101067.22;5016024;28;20515;-76
2021/09/19 06:11:01;;;;;;;2.22;1.30;;;;;;;19.92;43.97;101069.97;5026464;28;20091;-77
2021/09/19 06:13:27;;;;;;;1.95;1.30;;;;;;;19.93;43.76;101062.59;5025334;28;20503;-76
2021/09/19 06:15:54;;;;;;;1.88;1.20;;;;;;;19.95;43.78;101063.25;5008674;28;20045;-76
2021/09/19 06:18:20;;;;;;;2.10;1.30;;;;;;;19.95;43.85;101066.88;5007918;28;20098;-67
2021/09/19 06:20:47;;;;;;;2.88;1.50;;;;;;;19.95;43.98;101066.88;5026109;28;20579;-68
2021/09/19 06:23:14;;;;;;;2.15;1.40;;;;;;;19.98;44.19;101057.44;5025289;28;20170;-67
2021/09/19 06:25:40;;;;;;;2.55;1.50;;;;;;;19.99;43.93;101065.56;5025515;28;20132;-66
2021/09/19 06:28:07;;;;;;;2.10;1.40;;;;;;;20.00;44.48;101067.31;5030023;28;20179;-67
2021/09/19 06:30:33;;;;;;;2.63;1.50;;;;;;;20.02;44.77;101056.97;5027767;28;20434;-68
2021/09/19 06:33:00;;;;;;;2.78;1.30;;;;;;;20.06;44.01;101057.53;5024497;28;20077;-68
2021/09/19 06:35:27;;;;;;;2.88;1.30;;;;;;;20.09;44.21;101059.97;5025443;28;20045;-67
2021/09/19 06:37:53;;;;;;;2.05;1.35;;;;;;;20.13;44.57;101069.63;5007152;28;20046;-66
2021/09/19 06:40:20;;;;;;;2.00;1.35;;;;;;;20.17;44.31;101070.19;5025887;28;20144;-67
2021/09/19 06:42:48;;;;;;;2.10;1.30;;;;;;;20.20;44.42;101067.97;5026831;28;20052;-77
2021/09/19 06:45:14;;;;;;;2.65;1.60;;;;;;;20.24;44.51;101068.53;5046056;28;20546;-77
2021/09/19 06:47:42;;;;;;;2.70;1.60;;;;;;;20.29;44.21;101068.91;5027228;28;20124;-76
2021/09/19 06:50:11;;;;;;;2.50;1.58;;;;;;;20.33;44.19;101070.34;5009423;28;20132;-76
2021/09/19 06:52:38;;;;;;;2.60;1.65;;;;;;;20.34;44.72;101072.09;5025270;28;20163;-76
2021/09/19 06:55:06;;;;;;;2.67;1.60;;;;;;;20.38;44.69;101074.38;5043950;28;20326;-75
2021/09/19 06:57:32;;;;;;;2.53;1.48;;;;;;;20.42;44.33;101073.00;5022952;28;20140;-77
2021/09/19 06:59:59;;;;;;;2.25;1.50;;;;;;;20.46;44.64;101073.56;5028940;28;20132;-77
2021/09/19 07:02:25;;;;;;;2.88;1.70;;;;;;;20.49;44.75;101076.00;5007495;28;20057;-76
2021/09/19 07:04:52;;;;;;;2.38;1.48;;;;;;;20.52;44.47;101081.19;5041040;28;20144;-76
2021/09/19 07:07:19;;;;;;;2.83;1.40;;;;;;;20.56;44.73;101065.19;5027052;28;20497;-76
2021/09/19 07:09:45;;;;;;;2.65;1.50;;;;;;;20.59;44.88;101071.22;5031863;28;20410;-76
2021/09/19 07:12:12;;;;;;;2.88;1.63;;;;;;;20.64;44.66;101074.38;5025319;28;20049;-76
2021/09/19 07:14:38;;;;;;;2.60;1.50;;;;;;;20.68;44.48;101069.38;5036589;28;20477;-76
2021/09/19 07:17:05;;;;;;;2.38;1.58;;;;;;;20.73;44.43;101075.31;5031569;28;20051;-76
2021/09/19 07:19:31;;;;;;;2.33;1.40;;;;;;;20.77;44.81;101060.13;5020582;28;20148;-76
2021/09/19 07:21:58;;;;;;;3.35;1.88;;;;;;;20.83;44.75;101067.78;5012188;28;20140;-76
2021/09/19 07:24:24;;;;;;;2.05;1.48;;;;;;;20.87;44.72;101064.53;5037364;28;20083;-76
2021/09/19 07:26:51;;;;;;;2.28;1.52;;;;;;;20.92;44.16;101071.47;5049163;28;20494;-74
2021/09/19 07:29:17;;;;;;;2.05;1.40;;;;;;;20.97;44.33;101063.53;5013007;28;20479;-74
2021/09/19 07:31:44;;;;;;;2.65;1.45;;;;;;;21.02;44.30;101066.66;5029351;28;20140;-74
2021/09/19 07:34:11;;;;;;;2.55;1.52;;;;;;;21.06;44.84;101068.94;5028119;28;20373;-74
2021/09/19 07:36:39;;;;;;;2.58;1.67;;;;;;;21.15;44.44;101079.00;5011635;28;20131;-74
2021/09/19 07:39:06;;;;;;;2.50;1.67;;;;;;;21.18;44.56;101078.69;5010792;28;20495;-74
2021/09/19 07:41:34;;;;;;;2.45;1.30;;;;;;;21.23;44.59;101078.19;5029108;28;20401;-74
2021/09/19 07:44:01;;;;;;;2.33;1.42;;;;;;;21.27;44.21;101077.69;5030884;28;20048;-74
2021/09/19 07:46:27;;;;;;;2.20;1.50;;;;;;;21.32;44.14;101085.50;5048703;28;20140;-73
2021/09/19 07:48:54;;;;;;;2.45;1.40;;;;;;;21.35;44.42;101079.63;5047944;28;20290;-73
2021/09/19 07:51:23;;;;;;;2.10;1.40;;;;;;;21.40;43.82;101090.19;5048912;28;20049;-74
2021/09/19 07:53:51;;;;;;;2.13;1.38;;;;;;;21.45;44.51;101082.25;4994612;28;20069;-74
2021/09/19 07:56:20;;;;;;;2.80;1.40;;;;;;;21.50;43.84;101083.47;5008671;28;20045;-74
2021/09/19 07:58:47;;;;;;;2.53;1.77;;;;;;;21.53;44.21;101076.75;5020674;28;20080;-74
2021/09/19 08:01:14;;;;;;;1.92;1.23;;;;;;;21.56;44.00;101076.41;5026558;28;20558;-74
2021/09/19 08:03:47;;;;;;;2.22;1.48;;;;;;;21.59;44.15;101082.47;5030952;28;20071;-73
2021/09/19 08:06:15;;;;;;;2.90;1.73;;;;;;;21.63;44.01;101089.41;5048120;28;20056;-74
2021/09/19 08:08:42;;;;;;;2.45;1.90;;;;;;;21.67;44.04;101089.03;5047715;28;20136;-76
2021/09/19 08:11:09;;;;;;;1.83;1.48;;;;;;;21.69;43.63;101092.50;5030648;28;20091;-74
2021/09/19 08:13:35;;;;;;;2.13;1.38;;;;;;;21.73;43.91;101085.63;5047878;28;20045;-74
2021/09/19 08:16:02;;;;;;;2.40;1.45;;;;;;;21.77;43.83;101089.75;5014931;28;20054;-74
2021/09/19 08:18:28;;;;;;;1.85;1.23;;;;;;;21.80;43.82;101089.44;5027557;28;20046;-75
2021/09/19 08:20:55;;;;;;;2.90;1.80;;;;;;;21.84;43.43;101090.81;5041903;28;20052;-74
2021/09/19 08:23:21;;;;;;;1.95;1.40;;;;;;;21.87;43.54;101096.88;5029691;28;20491;-73
2021/09/19 08:25:48;;;;;;;2.53;1.58;;;;;;;21.89;43.70;101094.81;5035387;28;20135;-73
2021/09/19 08:28:15;;;;;;;2.88;1.60;;;;;;;21.92;43.49;101091.69;5009028;28;20524;-74
2021/09/19 08:30:42;;;;;;;2.63;1.60;;;;;;;21.96;43.39;101093.09;5019701;28;20107;-74
2021/09/19 08:33:10;;;;;;;2.30;1.52;;;;;;;22.00;43.81;101097.25;5046259;28;20045;-74
2021/09/19 08:35:38;;;;;;;2.78;1.60;;;;;;;22.06;43.73;101104.03;5046703;28;20072;-75
2021/09/19 08:38:06;;;;;;;2.40;1.42;;;;;;;22.10;43.59;101102.63;5045605;28;20077;-73
2021/09/19 08:40:33;;;;;;;2.10;1.38;;;;;;;22.15;43.36;101107.69;5039310;28;20407;-74
2021/09/19 08:43:00;;;;;;;2.45;1.50;;;;;;;22.20;43.09;101111.66;5025534;28;20045;-74
2021/09/19 08:45:27;;;;;;;2.78;1.50;;;;;;;22.25;43.20;101122.19;5026840;28;20037;-73
2021/09/19 08:47:53;;;;;;;2.20;1.48;;;;;;;22.27;43.28;101109.91;5025311;28;20073;-74
2021/09/19 08:50:21;;;;;;;2.60;1.58;;;;;;;22.32;43.11;101112.16;5013992;28;20088;-74
2021/09/19 08:52:49;;;;;;;2.83;1.80;;;;;;;22.36;42.92;101111.66;5009327;28;20073;-75
2021/09/19 08:55:16;;;;;;;3.05;1.40;;;;;;;22.42;43.03;101121.16;4996241;28;20073;-74
2021/09/19 08:57:42;;;;;;;2.53;1.55;;;;;;;22.47;43.03;101115.97;5040226;28;20133;-74
2021/09/19 09:00:13;;;;;;;2.20;1.40;;;;;;;22.55;42.75;101109.56;5026315;28;20050;-74
2021/09/19 09:02:50;;;;;;;2.10;1.48;;;;;;;22.62;41.93;101121.69;5025850;28;20124;-74
2021/09/19 09:05:24;;;;;;;1.77;1.27;;;;;;;22.66;41.64;101111.97;5010998;28;20068;-73
2021/09/19 09:07:52;;;;;;;2.33;1.40;;;;;;;22.69;42.16;101118.03;5045272;28;20348;-74
2021/09/19 09:10:39;;;;;;;2.03;1.40;;;;;;;22.75;41.84;101120.13;5026920;28;20508;-74
2021/09/19 09:13:23;;;;;;;2.20;1.38;;;;;;;22.85;41.64;101121.84;5007620;28;20055;-73
2021/09/19 09:16:04;;;;;;;2.08;1.30;;;;;;;22.93;41.75;101122.69;5031189;28;20049;-73
2021/09/19 09:18:40;;;;;;;1.92;1.30;;;;;;;23.00;41.52;101126.50;5045796;28;20045;-74
2021/09/19 09:21:12;;;;;;;2.55;1.38;;;;;;;23.07;41.51;101130.28;5045897;28;20083;-73
2021/09/19 09:23:40;;;;;;;;;;;;;;;22.84;42.15;101126.53;5027745;28;20049;-74
2021/09/19 09:26:18;;;;;;;1.98;1.20;;;;;;;23.17;42.04;101131.97;5039056;28;20227;-74
2021/09/19 09:28:46;;;;;;;2.08;1.30;;;;;;;23.25;41.36;101123.66;4970318;28;1089197;-74
2021/09/19 09:31:20;;;;;;;2.45;1.33;;;;;;;23.35;41.38;101129.84;5026565;28;20057;-74
2021/09/19 09:33:55;;;;;;;2.00;1.38;;;;;;;23.42;40.84;101117.00;5008957;28;20147;-74
2021/09/19 09:36:30;;;;;;;2.17;1.50;;;;;;;23.49;41.11;101124.44;5015637;28;20578;-74
2021/09/19 09:38:58;;;;;;;2.95;1.70;;;;;;;23.54;41.75;101121.16;5018445;28;20115;-72
2021/09/19 09:41:38;;;;;;;3.20;1.55;;;;;;;23.65;41.30;101120.75;5029383;28;20351;-74
2021/09/19 09:44:24;;;;;;;2.00;1.30;;;;;;;23.71;40.67;101124.72;5046072;28;20502;-73
2021/09/19 09:46:51;;;;;;;1.83;1.35;;;;;;;23.77;41.38;101110.97;5036427;28;20084;-74
2021/09/19 09:49:22;;;;;;;2.10;1.40;;;;;;;23.88;40.26;101118.88;5025655;28;20069;-74
2021/09/19 09:51:49;;;;;;;2.80;1.30;;;;;;;23.93;40.58;101114.69;5032679;28;20179;-74
2021/09/19 09:54:16;;;;;;;2.60;1.40;;;;;;;24.00;40.39;101112.91;5005858;28;20060;-74
2021/09/19 09:56:44;;;;;;;2.53;1.45;;;;;;;24.08;39.83;101112.84;4995999;28;20469;-74
2021/09/19 09:59:14;;;;;;;2.45;1.45;;;;;;;24.15;40.17;101109.16;5025519;28;20517;-74
2021/09/19 10:01:40;;;;;;;1.73;1.10;;;;;;;24.22;40.07;101114.88;5014625;28;20087;-74
2021/09/19 10:04:09;;;;;;;2.13;1.35;;;;;;;24.30;40.09;101114.81;5045504;28;20106;-74
2021/09/19 10:06:37;;;;;;;2.03;1.38;;;;;;;24.39;40.49;101112.81;5045838;28;20043;-74
2021/09/19 10:09:04;;;;;;;2.22;1.50;;;;;;;24.46;40.38;101111.06;5045636;28;20128;-74
2021/09/19 10:11:31;;;;;;;2.35;1.52;;;;;;;24.52;39.38;101113.06;5028014;28;20107;-74
2021/09/19 10:13:57;;;;;;;1.45;1.10;;;;;;;24.59;39.30;101111.28;5045411;28;20056;-73
2021/09/19 10:16:24;;;;;;;2.60;1.42;;;;;;;24.63;39.56;101104.28;5045790;28;20128;-74
2021/09/19 10:18:52;;;;;;;1.92;1.20;;;;;;;24.68;39.20;101110.16;5044868;28;20410;-74
2021/09/19 10:21:24;;;;;;;3.05;1.35;;;;;;;24.74;38.68;101101.06;5028178;28;20452;-73
2021/09/19 10:23:54;;;;;;;2.33;1.40;;;;;;;24.76;38.16;101106.44;5025177;28;20160;-73
2021/09/19 10:26:26;;;;;;;2.58;1.33;;;;;;;24.76;38.88;101103.66;5026195;28;20565;-74
2021/09/19 10:28:54;;;;;;;2.33;1.50;;;;;;;24.79;38.84;101108.84;5029705;28;20088;-73
2021/09/19 10:31:23;;;;;;;2.85;1.67;;;;;;;24.82;38.82;101114.00;5026046;28;20108;-73
2021/09/19 10:33:54;;;;;;;2.47;1.55;;;;;;;24.83;37.76;101112.94;5025129;28;20478;-74
2021/09/19 10:36:31;;;;;;;2.30;1.50;;;;;;;24.85;38.22;101110.84;5025360;28;20094;-73
2021/09/19 10:39:15;;;;;;;2.63;1.63;;;;;;;24.83;37.64;101108.25;5024836;28;20230;-74
2021/09/19 10:42:03;;;;;;;2.40;1.50;;;;;;;24.81;37.60;101104.81;5008434;28;20136;-74
2021/09/19 10:44:45;;;;;;;2.55;1.60;;;;;;;24.82;37.67;101106.53;5025353;28;20045;-74
2021/09/19 10:47:33;;;;;;;2.60;1.70;;;;;;;24.77;37.66;101103.47;5024680;28;20152;-74
2021/09/19 10:50:22;;;;;;;2.42;1.58;;;;;;;24.78;37.69;101091.31;5025342;28;20123;-74
2021/09/19 10:52:52;;;;;;;1.85;1.30;;;;;;;24.75;37.46;101093.59;5023909;28;20099;-74
2021/09/19 10:55:35;;;;;;;2.70;1.85;;;;;;;24.74;37.26;101100.19;5025562;28;20423;-74
2021/09/19 10:58:13;;;;;;;2.80;1.50;;;;;;;24.71;37.15;101098.66;5006978;28;20055;-73
2021/09/19 11:00:44;;;;;;;3.35;1.85;;;;;;;24.68;38.16;101098.19;5016075;28;20466;-74
2021/09/19 11:03:28;;;;;;;3.13;2.00;;;;;;;24.65;37.58;101093.84;5034865;28;20076;-73
2021/09/19 11:05:55;;;;;;;2.70;1.60;;;;;;;24.62;37.49;101094.25;5045084;28;20037;-73
2021/09/19 11:08:21;;;;;;;2.78;1.42;;;;;;;24.60;37.72;101090.78;5044358;28;20115;-74
2021/09/19 11:10:48;;;;;;;3.42;1.70;;;;;;;24.58;37.27;101092.88;5045369;28;20395;-74
2021/09/19 11:13:28;;;;;;;3.10;1.50;;;;;;;24.60;37.25;101097.22;5026316;28;20053;-74
2021/09/19 11:16:03;;;;;;;3.40;1.95;;;;;;;24.59;37.20;101103.81;5044942;28;20089;-74
2021/09/19 11:18:31;;;;;;;3.92;1.83;;;;;;;24.54;37.68;101099.88;5026242;28;20110;-74
2021/09/19 11:21:10;;;;;;;3.08;1.80;;;;;;;24.57;37.02;101100.34;5027431;28;20053;-74
2021/09/19 11:23:58;;;;;;;3.22;1.80;;;;;;;24.54;37.45;101102.66;5044098;28;20368;-74
2021/09/19 11:26:35;;;;;;;4.20;1.80;;;;;;;24.55;37.14;101104.34;5045013;28;20133;-74
2021/09/19 11:29:12;;;;;;;2.42;1.60;;;;;;;24.55;37.08;101101.59;5010798;28;20517;-75
2021/09/19 11:31:40;;;;;;;3.42;1.98;;;;;;;24.52;37.11;101101.97;5025281;28;20108;-74